createdAt,value
2023-02-22T00:04:13.425Z,65.18
2023-02-22T00:09:20.786Z,65.49
2023-02-22T00:14:27.738Z,65.58
2023-02-22T00:19:31.342Z,65.25
2023-02-22T00:24:36.318Z,65.04
2023-02-22T00:29:39.258Z,64.43
2023-02-22T00:34:43.859Z,64.44
2023-02-22T00:39:50.773Z,64.90
2023-02-22T00:44:53.308Z,64.81
2023-02-22T00:49:56.012Z,64.64
2023-02-22T00:54:58.525Z,64.93
2023-02-22T01:00:12.154Z,64.56
2023-02-22T01:05:16.572Z,64.56
2023-02-22T01:10:22.152Z,64.64
2023-02-22T01:15:29.167Z,64.47
2023-02-22T01:20:32.416Z,64.86
2023-02-22T01:25:36.054Z,65.23
2023-02-22T01:30:38.774Z,64.55
2023-02-22T01:35:43.121Z,64.72
2023-02-22T01:40:49.766Z,64.10
2023-02-22T01:46:02.935Z,64.56
2023-02-22T01:51:25.911Z,64.97
2023-02-22T01:56:31.565Z,64.53
2023-02-22T02:01:36.763Z,64.02
2023-02-22T02:06:42.507Z,63.56
2023-02-22T02:11:46.054Z,63.56
2023-02-22T02:16:51.868Z,63.53
2023-02-22T02:21:54.302Z,63.58
2023-02-22T02:27:14.749Z,62.91
2023-02-22T02:32:18.445Z,62.72
2023-02-22T02:37:41.986Z,62.97
2023-02-22T02:42:51.479Z,62.62
2023-02-22T02:47:59.039Z,62.07
2023-02-22T02:53:05.529Z,61.83
2023-02-22T02:58:09.327Z,61.87
2023-02-22T03:03:23.799Z,61.79
2023-02-22T03:08:37.958Z,61.83
2023-02-22T03:14:11.932Z,61.56
2023-02-22T03:19:25.466Z,60.85
2023-02-22T03:24:42.684Z,60.62
2023-02-22T03:29:46.112Z,60.09
2023-02-22T03:34:58.477Z,60.28
2023-02-22T03:40:16.058Z,59.42
2023-02-22T03:45:24.828Z,59.61
2023-02-22T03:50:35.887Z,58.93
2023-02-22T03:55:39.933Z,58.97
2023-02-22T04:00:44.813Z,59.12
2023-02-22T04:05:47.740Z,60.01
2023-02-22T04:10:51.492Z,60.17
2023-02-22T04:15:57.888Z,60.25
2023-02-22T04:21:01.144Z,60.64
2023-02-22T04:26:17.456Z,60.52
2023-02-22T04:31:26.089Z,60.64
2023-02-22T04:36:33.374Z,60.79
2023-02-22T04:41:36.699Z,60.67
2023-02-22T04:46:39.310Z,60.40
2023-02-22T04:51:42.753Z,59.96
2023-02-22T04:56:48.109Z,60.27
2023-02-22T05:01:50.742Z,59.45
2023-02-22T05:06:55.046Z,59.42
2023-02-22T05:11:57.751Z,59.29
2023-02-22T05:17:01.276Z,58.55
2023-02-22T05:22:04.319Z,58.33
2023-02-22T05:27:06.958Z,57.91
2023-02-22T05:32:09.456Z,58.65
2023-02-22T05:37:12.030Z,58.11
2023-02-22T05:42:14.839Z,58.03
2023-02-22T05:47:17.362Z,57.11
2023-02-22T05:52:19.838Z,57.31
2023-02-22T05:57:22.283Z,56.99
2023-02-22T06:02:24.751Z,56.88
2023-02-22T06:07:27.447Z,56.75
2023-02-22T06:12:30.037Z,56.18
2023-02-22T06:17:32.529Z,56.68
2023-02-22T06:22:34.958Z,56.98
2023-02-22T06:27:37.499Z,56.74
2023-02-22T06:32:40.081Z,56.37
2023-02-22T06:37:42.944Z,56.60
2023-02-22T06:42:49.327Z,56.93
2023-02-22T06:47:52.747Z,57.64
2023-02-22T06:52:59.366Z,57.35
2023-02-22T06:58:04.291Z,57.62
2023-02-22T07:03:06.779Z,58.31
2023-02-22T07:08:09.342Z,58.23
2023-02-22T07:13:11.882Z,57.57
2023-02-22T07:18:16.312Z,56.58
2023-02-22T07:23:18.907Z,55.41
2023-02-22T07:28:21.363Z,54.57
2023-02-22T07:33:23.853Z,52.53
2023-02-22T07:38:26.313Z,49.23
2023-02-22T07:43:29.799Z,51.32
2023-02-22T07:48:34.485Z,49.34
2023-02-22T07:53:37.149Z,50.19
2023-02-22T07:58:42.032Z,50.48
2023-02-22T08:03:47.744Z,50.36
2023-02-22T08:08:50.106Z,49.47
2023-02-22T08:13:52.544Z,49.70
2023-02-22T08:18:55.030Z,49.44
2023-02-22T08:23:57.471Z,46.52
2023-02-22T08:29:01.261Z,43.95
2023-02-22T08:34:03.835Z,42.10
2023-02-22T08:39:06.385Z,40.34
2023-02-22T08:44:08.940Z,38.83
2023-02-22T08:49:11.407Z,40.36
2023-02-22T08:54:14.437Z,39.74
2023-02-22T08:59:17.728Z,38.40
2023-02-22T09:04:20.410Z,39.11
2023-02-22T09:09:23.283Z,41.16
2023-02-22T09:14:26.002Z,40.62
2023-02-22T09:19:28.594Z,40.36
2023-02-22T09:24:31.176Z,41.12
2023-02-22T09:29:33.850Z,38.17
2023-02-22T09:34:36.372Z,36.58
2023-02-22T09:39:40.666Z,35.09
2023-02-22T09:45:07.269Z,34.31
2023-02-22T09:50:17.007Z,36.15
2023-02-22T09:55:31.124Z,38.12
2023-02-22T10:00:38.777Z,39.09
2023-02-22T10:05:45.413Z,38.69
2023-02-22T10:10:57.948Z,39.90
2023-02-22T10:16:06.809Z,37.71
2023-02-22T10:21:12.284Z,35.83
2023-02-22T10:26:24.383Z,35.39
2023-02-22T10:31:35.937Z,36.92
2023-02-22T10:36:39.490Z,36.49
2023-02-22T10:41:49.484Z,35.03
2023-02-22T10:46:53.550Z,33.62
2023-02-22T10:52:01.378Z,32.62
2023-02-22T10:57:05.310Z,32.84
2023-02-22T11:02:33.630Z,32.00
2023-02-22T11:07:37.455Z,31.07
2023-02-22T11:12:43.950Z,31.63
2023-02-22T11:17:48.551Z,31.89
2023-02-22T11:22:54.989Z,31.46
2023-02-22T11:28:09.915Z,31.80
2023-02-22T11:33:26.169Z,31.74
2023-02-22T11:38:38.219Z,32.41
2023-02-22T11:43:42.305Z,32.31
2023-02-22T11:49:12.732Z,33.08
2023-02-22T11:54:53.310Z,33.61
2023-02-22T12:00:12.438Z,33.75
2023-02-22T12:05:45.731Z,34.76
2023-02-22T12:11:14.624Z,35.29
2023-02-22T12:16:44.326Z,34.33
2023-02-22T12:21:56.065Z,34.67
2023-02-22T12:27:06.418Z,35.35
2023-02-22T12:32:43.225Z,36.00
2023-02-22T12:37:58.625Z,36.20
2023-02-22T12:43:22.850Z,37.37
2023-02-22T12:48:46.437Z,37.88
2023-02-22T12:54:14.887Z,39.08
2023-02-22T12:59:37.176Z,39.76
2023-02-22T13:04:39.772Z,41.80
2023-02-22T13:10:28.947Z,42.27
2023-02-22T13:16:14.889Z,42.29
2023-02-22T13:21:48.338Z,42.29
2023-02-22T13:27:06.666Z,42.47
2023-02-22T13:32:35.095Z,43.57
2023-02-22T13:38:02.442Z,44.14
2023-02-22T13:43:49.165Z,44.84
2023-02-22T13:48:55.285Z,45.51
2023-02-22T13:54:16.729Z,45.57
2023-02-22T13:59:39.608Z,46.50
2023-02-22T14:04:42.488Z,46.42
2023-02-22T14:09:51.857Z,47.80
2023-02-22T14:15:28.242Z,47.89
2023-02-22T14:20:41.201Z,47.79
2023-02-22T14:25:44.297Z,47.89
2023-02-22T14:30:47.491Z,47.88
2023-02-22T14:35:53.115Z,48.20
2023-02-22T14:40:58.889Z,48.48
2023-02-22T14:46:05.574Z,49.08
2023-02-22T14:51:22.381Z,48.84
2023-02-22T14:56:36.453Z,49.43
2023-02-22T15:01:58.373Z,49.81
2023-02-22T15:07:16.210Z,49.74
2023-02-22T15:12:30.206Z,50.08
2023-02-22T15:17:32.810Z,49.63
2023-02-22T15:22:37.039Z,50.68
2023-02-22T15:27:55.386Z,50.21
2023-02-22T15:33:24.878Z,49.62
2023-02-22T15:38:30.085Z,50.26
2023-02-22T15:43:33.025Z,49.82
2023-02-22T15:48:37.513Z,50.62
2023-02-22T15:53:57.337Z,50.62
2023-02-22T16:06:20.147Z,50.34
2023-02-22T16:11:48.384Z,50.60
2023-02-22T16:17:31.884Z,50.34
2023-02-22T16:22:38.540Z,50.56
2023-02-22T16:28:09.510Z,51.18
2023-02-22T16:33:29.764Z,50.56
2023-02-22T16:38:53.079Z,50.72
2023-02-22T16:44:09.340Z,50.96
2023-02-22T16:49:15.273Z,51.25
2023-02-22T16:54:40.240Z,50.94
2023-02-22T16:59:45.004Z,51.20
2023-02-22T17:05:02.725Z,51.52
2023-02-22T17:10:18.142Z,51.38
2023-02-22T17:15:29.258Z,51.74
2023-02-22T17:20:32.159Z,51.92
2023-02-22T17:25:39.042Z,52.15
2023-02-22T17:30:42.153Z,51.47
2023-02-22T17:35:47.158Z,52.03
2023-02-22T17:40:52.181Z,51.85
2023-02-22T17:45:55.770Z,51.85
2023-02-22T17:50:58.265Z,52.53
2023-02-22T17:56:09.521Z,52.70
2023-02-22T18:01:27.396Z,52.43
2023-02-22T18:06:32.931Z,52.63
2023-02-22T18:11:35.501Z,51.95
2023-02-22T18:16:39.591Z,52.40
2023-02-22T18:21:42.757Z,52.22
2023-02-22T18:26:45.604Z,53.24
2023-02-22T18:31:53.094Z,53.37
2023-02-22T18:36:56.106Z,53.04
2023-02-22T18:41:58.498Z,52.61
2023-02-22T18:47:01.025Z,52.69
2023-02-22T18:52:03.707Z,53.09
2023-02-22T18:57:07.658Z,53.04
2023-02-22T19:02:21.562Z,53.06
2023-02-22T19:07:26.456Z,52.87
2023-02-22T19:12:31.575Z,53.08
2023-02-22T19:17:36.761Z,52.82
2023-02-22T19:22:39.559Z,53.43
2023-02-22T19:27:44.552Z,53.15
2023-02-22T19:32:47.738Z,53.05
2023-02-22T19:37:54.010Z,53.59
2023-02-22T19:42:57.725Z,54.50
2023-02-22T19:48:00.224Z,53.46
2023-02-22T19:53:02.697Z,53.89
2023-02-22T19:58:05.602Z,53.50
2023-02-22T20:03:09.519Z,53.49
2023-02-22T20:08:12.119Z,53.65
2023-02-22T20:13:14.657Z,53.53
2023-02-22T20:18:17.874Z,53.74
2023-02-22T20:23:20.316Z,53.89
2023-02-22T20:28:24.406Z,53.32
2023-02-22T20:33:27.298Z,53.74
2023-02-22T20:38:32.692Z,54.04
2023-02-22T20:43:35.904Z,53.86
2023-02-22T20:48:38.573Z,53.97
2023-02-22T20:53:43.718Z,53.31
2023-02-22T20:58:47.611Z,53.38
2023-02-22T21:03:50.483Z,53.80
2023-02-22T21:08:55.692Z,53.80
2023-02-22T21:14:00.195Z,53.50
2023-02-22T21:19:05.546Z,53.33
2023-02-22T21:24:08.739Z,53.49
2023-02-22T21:29:11.281Z,52.89
2023-02-22T21:34:17.745Z,53.48
2023-02-22T21:39:20.761Z,54.08
2023-02-22T21:44:23.302Z,54.15
2023-02-22T21:49:25.976Z,54.08
2023-02-22T21:54:28.563Z,54.56
2023-02-22T21:59:31.061Z,54.28
2023-02-22T22:04:35.235Z,54.47
2023-02-22T22:09:41.454Z,55.31
2023-02-22T22:14:43.985Z,54.97
2023-02-22T22:19:49.072Z,55.00
2023-02-22T22:24:54.098Z,55.33
2023-02-22T22:29:57.572Z,54.90
2023-02-22T22:35:00.057Z,55.04
2023-02-22T22:40:05.116Z,54.57
2023-02-22T22:45:11.926Z,54.83
2023-02-22T22:50:20.077Z,54.70
2023-02-22T22:55:24.475Z,54.55
2023-02-22T23:00:46.532Z,55.42
2023-02-22T23:05:49.141Z,54.57
2023-02-22T23:10:51.860Z,54.17
2023-02-22T23:15:54.951Z,54.91
2023-02-22T23:21:05.650Z,55.07
2023-02-22T23:26:18.148Z,54.77
2023-02-22T23:31:21.238Z,54.51
2023-02-22T23:36:24.267Z,54.37
2023-02-22T23:41:28.987Z,54.96
2023-02-22T23:46:34.232Z,54.99
2023-02-22T23:51:47.472Z,54.85
2023-02-22T23:56:58.694Z,55.08
